Time;durP1;ratioP1;P1;durP2;ratioP2;P2;SDS_P1;SDS_P2;PMS_P1;PMS_P2;Temp;Humidity;BMP_temperature;BMP_pressure;BME280_temperature;BME280_humidity;BME280_pressure;Samples;Min_cycle;Max_cycle;Signal;HPM_P1;HPM_P2
2022/04/20 00:00:35;;;;;;;1.27;1.08;;;14.40;50.50;;;;;;5115889;27;20118;-60
2022/04/20 00:03:02;;;;;;;1.45;1.30;;;14.40;50.50;;;;;;5110338;27;20102;-59
2022/04/20 00:05:30;;;;;;;2.03;1.60;;;14.40;50.60;;;;;;5110117;27;20130;-60
2022/04/20 00:07:56;;;;;;;1.92;1.25;;;14.30;50.50;;;;;;5100107;28;20031;-59
2022/04/20 00:10:22;;;;;;;1.13;1.02;;;14.30;50.50;;;;;;5124773;27;20087;-62
2022/04/20 00:12:47;;;;;;;2.22;1.42;;;14.30;50.60;;;;;;5108433;27;20024;-62
2022/04/20 00:15:13;;;;;;;1.25;1.15;;;14.30;50.70;;;;;;5110232;27;20034;-59
2022/04/20 00:17:38;;;;;;;1.25;1.13;;;14.20;50.50;;;;;;5103550;27;20106;-60
2022/04/20 00:20:05;;;;;;;1.40;1.17;;;14.20;50.50;;;;;;5112621;27;20113;-59
2022/04/20 00:22:31;;;;;;;1.67;0.70;;;14.20;50.50;;;;;;5103454;27;20101;-59
2022/04/20 00:24:56;;;;;;;1.35;1.00;;;14.20;50.50;;;;;;5103911;27;20446;-59
2022/04/20 00:27:22;;;;;;;2.10;1.33;;;14.10;50.40;;;;;;5110161;27;20027;-60
2022/04/20 00:29:48;;;;;;;1.23;0.93;;;14.10;50.40;;;;;;5112752;27;20387;-60
2022/04/20 00:32:13;;;;;;;1.10;1.10;;;14.10;50.60;;;;;;5097007;28;20032;-59
2022/04/20 00:34:39;;;;;;;1.08;0.90;;;14.00;51.10;;;;;;5109937;27;20035;-60
2022/04/20 00:37:05;;;;;;;2.38;1.05;;;14.00;50.40;;;;;;5112562;27;20398;-62
2022/04/20 00:39:30;;;;;;;2.10;1.35;;;13.90;50.50;;;;;;5115628;27;20043;-60
2022/04/20 00:41:57;;;;;;;2.78;1.30;;;13.90;50.50;;;;;;5114970;27;20403;-59
2022/04/20 00:44:24;;;;;;;1.63;1.48;;;13.90;50.50;;;;;;5110918;28;20028;-60
2022/04/20 00:46:52;;;;;;;1.25;1.05;;;13.90;50.50;;;;;;5112782;27;20027;-59
2022/04/20 00:49:18;;;;;;;2.65;1.27;;;13.80;50.50;;;;;;5118177;27;20076;-60
2022/04/20 00:51:56;;;;;;;0.93;0.88;;;13.80;50.60;;;;;;5113081;27;20390;-60
2022/04/20 00:54:22;;;;;;;1.20;1.10;;;13.80;50.60;;;;;;5112663;27;20034;-59
2022/04/20 00:56:47;;;;;;;3.13;1.35;;;13.70;50.40;;;;;;5107261;28;20028;-60
2022/04/20 00:59:15;;;;;;;0.68;0.68;;;13.70;50.30;;;;;;5106054;28;20036;-61
2022/04/20 01:01:41;;;;;;;1.15;0.98;;;13.70;50.10;;;;;;5113457;27;20118;-61
2022/04/20 01:04:07;;;;;;;3.53;1.10;;;13.70;50.00;;;;;;5105293;28;20019;-60
2022/04/20 01:06:33;;;;;;;1.88;1.05;;;13.60;50.00;;;;;;5103797;28;20023;-60
2022/04/20 01:09:00;;;;;;;1.67;1.08;;;13.60;49.90;;;;;;5095510;28;20031;-60
2022/04/20 01:11:27;;;;;;;0.95;0.70;;;13.60;49.80;;;;;;5105880;28;20024;-63
2022/04/20 01:13:53;;;;;;;1.17;1.00;;;13.50;49.70;;;;;;5100610;28;20077;-63
2022/04/20 01:16:19;;;;;;;1.02;0.70;;;13.50;49.80;;;;;;5109601;27;20015;-64
2022/04/20 01:18:44;;;;;;;1.05;0.80;;;13.50;49.90;;;;;;5100703;28;20055;-64
2022/04/20 01:21:11;;;;;;;1.55;1.13;;;13.50;49.80;;;;;;5100887;28;20051;-64
2022/04/20 01:23:37;;;;;;;1.30;0.90;;;13.40;49.80;;;;;;5109772;27;20031;-63
2022/04/20 01:26:10;;;;;;;1.38;0.90;;;13.40;49.70;;;;;;5107866;28;20093;-61
2022/04/20 01:28:36;;;;;;;;;;;13.40;49.60;;;;;;5112790;27;20491;-61
2022/04/20 01:31:03;;;;;;;1.17;1.02;;;13.30;49.60;;;;;;5100278;28;19947;-61
2022/04/20 01:33:29;;;;;;;0.60;0.60;;;13.30;49.50;;;;;;5101167;28;20509;-61
2022/04/20 01:35:55;;;;;;;1.10;0.73;;;13.30;49.40;;;;;;5111994;28;20020;-60
2022/04/20 01:38:21;;;;;;;1.73;0.77;;;13.30;49.40;;;;;;5111457;27;20039;-60
2022/04/20 01:40:46;;;;;;;1.02;0.90;;;13.20;49.30;;;;;;5111680;27;20432;-60
2022/04/20 01:43:12;;;;;;;1.38;1.00;;;13.20;49.30;;;;;;5118115;27;20062;-60
2022/04/20 01:45:38;;;;;;;1.38;1.23;;;13.20;49.40;;;;;;5116318;27;20027;-60
2022/04/20 01:48:04;;;;;;;2.33;1.17;;;13.20;49.40;;;;;;5111963;27;20457;-61
2022/04/20 01:50:29;;;;;;;3.05;0.98;;;13.10;49.40;;;;;;5116386;27;20646;-60
2022/04/20 01:52:55;;;;;;;0.70;0.70;;;13.10;49.40;;;;;;5103963;27;20474;-61
2022/04/20 01:55:21;;;;;;;1.10;0.80;;;13.10;49.30;;;;;;5111264;27;20051;-63
2022/04/20 01:57:47;;;;;;;1.23;1.13;;;13.10;49.20;;;;;;5113697;27;20101;-61
2022/04/20 02:00:13;;;;;;;1.30;0.77;;;13.00;49.30;;;;;;5126052;27;20029;-64
2022/04/20 02:02:39;;;;;;;1.70;1.00;;;13.00;49.60;;;;;;5112143;27;20505;-63
2022/04/20 02:05:07;;;;;;;16.92;1.10;;;13.00;49.40;;;;;;5109887;27;20023;-63
2022/04/20 02:07:33;;;;;;;1.83;1.10;;;12.90;49.20;;;;;;5108846;27;20050;-60
2022/04/20 02:10:00;;;;;;;2.55;1.25;;;12.90;49.20;;;;;;5120382;27;20032;-60
2022/04/20 02:12:26;;;;;;;2.03;1.20;;;12.90;49.30;;;;;;5104332;28;20235;-60
2022/04/20 02:14:52;;;;;;;0.95;0.77;;;12.80;49.10;;;;;;5109354;28;20032;-61
2022/04/20 02:17:17;;;;;;;2.03;1.10;;;12.80;49.10;;;;;;5111132;27;20027;-60
2022/04/20 02:19:43;;;;;;;2.75;1.10;;;12.80;49.10;;;;;;5111472;27;20063;-60
2022/04/20 02:22:09;;;;;;;2.10;1.00;;;12.80;49.20;;;;;;5108633;27;20499;-64
2022/04/20 02:24:34;;;;;;;0.82;0.80;;;12.80;49.20;;;;;;5111460;27;20434;-63
2022/04/20 02:27:00;;;;;;;1.20;0.90;;;12.70;49.30;;;;;;5104843;27;20078;-63
2022/04/20 02:29:26;;;;;;;0.47;0.47;;;12.70;49.30;;;;;;5108241;27;20059;-65
2022/04/20 02:31:51;;;;;;;1.40;0.80;;;12.70;49.30;;;;;;5111276;28;20023;-64
2022/04/20 02:34:17;;;;;;;1.20;0.80;;;12.70;49.20;;;;;;5110551;27;20123;-61
2022/04/20 02:36:43;;;;;;;1.35;0.90;;;12.60;49.10;;;;;;5108352;27;20031;-59
2022/04/20 02:39:09;;;;;;;0.73;0.70;;;12.60;49.10;;;;;;5110195;28;20393;-59
2022/04/20 02:41:39;;;;;;;0.63;0.60;;;12.60;49.10;;;;;;5108877;28;20032;-60
2022/04/20 02:44:05;;;;;;;0.82;0.70;;;12.50;49.00;;;;;;5112360;27;20080;-60
2022/04/20 02:46:31;;;;;;;2.55;1.38;;;12.50;49.00;;;;;;5105341;28;20039;-61
2022/04/20 02:48:59;;;;;;;1.00;0.90;;;12.50;49.00;;;;;;5113953;27;20031;-62
2022/04/20 02:51:24;;;;;;;1.60;1.05;;;12.50;49.00;;;;;;5109189;28;20092;-61
2022/04/20 02:53:50;;;;;;;0.80;0.80;;;12.50;49.10;;;;;;5113003;27;20055;-63
2022/04/20 02:56:16;;;;;;;1.00;0.65;;;12.40;49.00;;;;;;5116267;27;20058;-63
2022/04/20 02:58:41;;;;;;;0.65;0.65;;;12.40;49.10;;;;;;5100777;27;20032;-63
2022/04/20 03:01:07;;;;;;;0.60;0.60;;;12.40;49.10;;;;;;5107687;27;20027;-60
2022/04/20 03:03:33;;;;;;;0.70;0.70;;;12.30;49.00;;;;;;5105914;27;20027;-60
2022/04/20 03:05:59;;;;;;;0.40;0.40;;;12.30;48.90;;;;;;5112190;27;20433;-60
2022/04/20 03:08:25;;;;;;;0.47;0.47;;;12.30;49.00;;;;;;5105164;27;20115;-60
2022/04/20 03:10:51;;;;;;;0.80;0.60;;;12.30;49.00;;;;;;5117670;27;20123;-61
2022/04/20 03:13:20;;;;;;;0.65;0.60;;;12.30;49.00;;;;;;5107653;28;20206;-60
2022/04/20 03:15:46;;;;;;;0.50;0.50;;;12.30;49.00;;;;;;5108739;28;20035;-60
2022/04/20 03:18:12;;;;;;;1.70;1.13;;;12.30;49.10;;;;;;5102757;27;20451;-61
2022/04/20 03:20:38;;;;;;;0.70;0.60;;;12.20;49.20;;;;;;5098982;27;20032;-60
2022/04/20 03:23:06;;;;;;;4.00;1.05;;;12.20;49.20;;;;;;5111635;27;20055;-61
2022/04/20 03:25:31;;;;;;;1.40;0.90;;;12.20;49.30;;;;;;5113416;27;20086;-62
2022/04/20 03:27:57;;;;;;;0.82;0.73;;;12.20;49.40;;;;;;5094163;27;20032;-63
2022/04/20 03:30:23;;;;;;;1.38;1.00;;;12.20;49.60;;;;;;5114877;27;20053;-63
2022/04/20 03:32:49;;;;;;;0.70;0.70;;;12.10;49.60;;;;;;5105161;27;20067;-63
2022/04/20 03:35:16;;;;;;;1.35;0.80;;;12.10;49.80;;;;;;5107319;27;20445;-62
2022/04/20 03:37:41;;;;;;;2.20;1.00;;;12.00;49.90;;;;;;5117602;27;20115;-63
2022/04/20 03:40:10;;;;;;;2.28;0.80;;;12.00;49.90;;;;;;5111130;27;20114;-64
2022/04/20 03:42:36;;;;;;;1.90;0.80;;;11.90;50.00;;;;;;5111073;27;20050;-64
2022/04/20 03:45:02;;;;;;;1.02;0.80;;;11.90;50.10;;;;;;5100792;28;20390;-64
2022/04/20 03:47:28;;;;;;;0.95;0.80;;;11.90;50.20;;;;;;5100978;27;20436;-64
2022/04/20 03:49:54;;;;;;;0.55;0.55;;;11.90;50.20;;;;;;5093853;28;20089;-63
2022/04/20 03:52:19;;;;;;;1.52;0.90;;;11.80;50.20;;;;;;5101676;27;20048;-60
2022/04/20 03:54:45;;;;;;;5.57;0.90;;;11.80;50.20;;;;;;5099596;28;20096;-60
2022/04/20 03:57:11;;;;;;;1.17;0.90;;;11.80;50.40;;;;;;5107843;28;20122;-59
2022/04/20 03:59:38;;;;;;;0.80;0.80;;;11.80;50.30;;;;;;5096816;27;20028;-62
2022/04/20 04:02:05;;;;;;;2.10;0.90;;;11.70;50.50;;;;;;5100712;28;20028;-62
2022/04/20 04:04:31;;;;;;;0.95;0.93;;;11.70;50.60;;;;;;5108262;28;20054;-63
2022/04/20 04:06:56;;;;;;;0.57;0.57;;;11.70;50.50;;;;;;5097546;28;20028;-63
2022/04/20 04:09:22;;;;;;;2.25;0.82;;;11.60;50.60;;;;;;5115922;27;20107;-62
2022/04/20 04:11:47;;;;;;;1.33;0.90;;;11.60;50.70;;;;;;5102630;27;20035;-62
2022/04/20 04:14:13;;;;;;;0.60;0.50;;;11.50;50.60;;;;;;5098010;28;20039;-62
2022/04/20 04:16:40;;;;;;;0.68;0.68;;;11.50;50.60;;;;;;5108261;27;20027;-59
2022/04/20 04:19:06;;;;;;;4.78;0.68;;;11.50;50.70;;;;;;5109127;28;20385;-59
2022/04/20 04:21:38;;;;;;;1.58;1.20;;;11.50;50.70;;;;;;5101322;27;20031;-63
2022/04/20 04:24:07;;;;;;;0.70;0.70;;;11.50;50.90;;;;;;5096746;28;20055;-62
2022/04/20 04:26:34;;;;;;;8.38;0.88;;;11.50;50.80;;;;;;5096737;28;20513;-60
2022/04/20 04:28:59;;;;;;;0.65;0.65;;;11.40;50.70;;;;;;5102184;28;20024;-60
2022/04/20 04:31:26;;;;;;;0.70;0.65;;;11.50;50.90;;;;;;5106951;28;20028;-63
2022/04/20 04:33:52;;;;;;;0.57;0.57;;;11.40;50.80;;;;;;5100647;27;20015;-63
2022/04/20 04:36:17;;;;;;;0.40;0.40;;;11.40;50.90;;;;;;5108870;27;20024;-64
2022/04/20 04:38:43;;;;;;;0.63;0.57;;;11.40;51.00;;;;;;5102340;28;20028;-63
2022/04/20 04:41:09;;;;;;;0.40;0.40;;;11.30;50.90;;;;;;5106027;28;20031;-63
2022/04/20 04:43:36;;;;;;;0.98;0.65;;;11.40;50.90;;;;;;5093635;28;20024;-63
2022/04/20 04:48:48;;;;;;;0.70;0.60;;;11.30;51.00;;;;;;5098520;28;20051;-60
2022/04/20 04:51:15;;;;;;;1.27;0.90;;;11.30;51.10;;;;;;5119961;27;20023;-60
2022/04/20 04:53:41;;;;;;;1.10;0.82;;;11.30;51.10;;;;;;5100686;28;20044;-60
2022/04/20 04:56:06;;;;;;;0.98;0.80;;;11.30;51.20;;;;;;5107914;28;20081;-60
2022/04/20 04:58:32;;;;;;;1.98;0.82;;;11.30;51.50;;;;;;5108645;28;20061;-60
2022/04/20 05:00:58;;;;;;;0.45;0.45;;;11.30;51.40;;;;;;5117343;28;20035;-59
2022/04/20 05:03:24;;;;;;;0.68;0.47;;;11.30;51.50;;;;;;5116704;27;20046;-59
2022/04/20 05:05:50;;;;;;;0.80;0.80;;;11.30;51.40;;;;;;5102566;28;20024;-63
2022/04/20 05:08:16;;;;;;;1.55;0.52;;;11.30;51.40;;;;;;5106531;28;20114;-62
2022/04/20 05:10:42;;;;;;;0.82;0.70;;;11.30;51.50;;;;;;5117365;28;20107;-62
2022/04/20 05:13:08;;;;;;;1.50;0.77;;;11.30;51.40;;;;;;5106526;28;20047;-62
2022/04/20 05:15:34;;;;;;;0.88;0.70;;;11.20;51.50;;;;;;5103440;28;20028;-62
2022/04/20 05:18:00;;;;;;;0.57;0.57;;;11.20;51.50;;;;;;5100849;28;20043;-63
2022/04/20 05:20:26;;;;;;;1.05;0.90;;;11.20;51.60;;;;;;5113880;28;20019;-63
2022/04/20 05:22:52;;;;;;;2.58;1.00;;;11.20;51.50;;;;;;5106447;27;20053;-62
2022/04/20 05:25:18;;;;;;;1.00;0.95;;;11.20;51.50;;;;;;5107196;28;20058;-63
2022/04/20 05:27:47;;;;;;;2.65;1.02;;;11.20;51.40;;;;;;5105419;28;20036;-63
2022/04/20 05:30:14;;;;;;;0.47;0.47;;;11.30;51.50;;;;;;5094907;28;20484;-60
2022/04/20 05:32:43;;;;;;;0.55;0.43;;;11.30;51.50;;;;;;5106208;28;20032;-59
2022/04/20 05:35:09;;;;;;;1.75;0.70;;;11.30;51.50;;;;;;5103413;27;20072;-59
2022/04/20 05:43:05;;;;;;;0.50;0.40;;;11.30;51.60;;;;;;5094890;28;20450;-63
2022/04/20 05:45:30;;;;;;;0.50;0.50;;;11.30;51.50;;;;;;5106266;28;20051;-63
2022/04/20 05:47:58;;;;;;;1.58;0.75;;;11.30;51.40;;;;;;5107555;28;20084;-63
2022/04/20 05:50:24;;;;;;;0.50;0.50;;;11.30;51.40;;;;;;5099483;28;20024;-63
2022/04/20 05:52:50;;;;;;;0.65;0.65;;;11.30;51.40;;;;;;5100705;28;20093;-63
2022/04/20 05:55:17;;;;;;;1.13;0.80;;;11.40;51.50;;;;;;5107902;28;20024;-59
2022/04/20 05:57:42;;;;;;;0.70;0.50;;;11.40;51.60;;;;;;5102007;28;20072;-63
2022/04/20 06:00:08;;;;;;;0.80;0.70;;;11.40;51.50;;;;;;5109173;27;20027;-63
2022/04/20 06:02:34;;;;;;;0.90;0.85;;;11.40;51.70;;;;;;5120335;27;20042;-63
2022/04/20 06:05:01;;;;;;;0.70;0.50;;;11.50;51.60;;;;;;5108751;27;20146;-63
2022/04/20 06:07:27;;;;;;;0.50;0.50;;;11.50;51.50;;;;;;5108254;27;20169;-63
2022/04/20 06:09:52;;;;;;;0.45;0.45;;;11.50;51.40;;;;;;5099449;28;20039;-63
2022/04/20 06:12:20;;;;;;;0.63;0.63;;;11.60;51.50;;;;;;5086225;28;20031;-63
2022/04/20 06:14:46;;;;;;;1.45;0.68;;;11.60;51.40;;;;;;5103622;27;20497;-63
2022/04/20 06:17:12;;;;;;;1.20;0.90;;;11.60;51.50;;;;;;5101474;27;20032;-63
2022/04/20 06:19:38;;;;;;;1.00;0.73;;;11.70;51.50;;;;;;5104666;27;20057;-63
2022/04/20 06:22:04;;;;;;;0.47;0.43;;;11.60;51.20;;;;;;5098007;27;20039;-61
2022/04/20 06:24:30;;;;;;;1.33;0.73;;;11.70;51.20;;;;;;5112972;27;20537;-60
2022/04/20 06:26:55;;;;;;;0.43;0.30;;;11.70;51.20;;;;;;5107952;28;20180;-61
2022/04/20 06:29:21;;;;;;;0.60;0.60;;;11.70;51.10;;;;;;5110220;28;20030;-60
2022/04/20 06:31:47;;;;;;;0.40;0.40;;;11.70;51.00;;;;;;5095035;28;20036;-61
2022/04/20 06:34:12;;;;;;;0.70;0.70;;;11.70;51.00;;;;;;5105470;27;20035;-60
2022/04/20 06:36:38;;;;;;;1.08;0.75;;;11.70;51.00;;;;;;5111079;27;20020;-61
2022/04/20 06:39:04;;;;;;;0.45;0.45;;;11.80;51.20;;;;;;5099486;28;20045;-60
2022/04/20 06:41:29;;;;;;;0.70;0.55;;;11.80;51.10;;;;;;5094175;28;20024;-61
2022/04/20 06:43:57;;;;;;;0.85;0.85;;;11.80;51.00;;;;;;5100224;28;20032;-59
2022/04/20 06:46:23;;;;;;;0.40;0.40;;;11.90;50.90;;;;;;5099873;28;20096;-60
2022/04/20 06:48:48;;;;;;;0.55;0.55;;;11.90;50.80;;;;;;5110307;28;20470;-60
2022/04/20 06:51:14;;;;;;;0.60;0.60;;;12.00;50.80;;;;;;5113497;27;20038;-59
2022/04/20 06:59:09;;;;;;;1.05;0.70;;;12.10;51.20;;;;;;5113097;27;20550;-60
2022/04/20 07:01:35;;;;;;;0.75;0.75;;;12.10;50.60;;;;;;5114337;27;20430;-59
2022/04/20 07:04:01;;;;;;;1.63;1.00;;;12.10;50.60;;;;;;5102565;27;20050;-60
2022/04/20 07:06:27;;;;;;;0.35;0.35;;;12.20;50.40;;;;;;5110248;27;20040;-61
2022/04/20 07:08:53;;;;;;;1.20;0.98;;;12.20;50.30;;;;;;5103284;27;20032;-62
2022/04/20 07:11:19;;;;;;;0.40;0.40;;;12.30;50.30;;;;;;5099778;27;20096;-64
2022/04/20 07:13:46;;;;;;;1.05;0.70;;;12.30;50.20;;;;;;5105959;27;20525;-61
2022/04/20 07:16:13;;;;;;;0.50;0.50;;;12.40;50.30;;;;;;5114425;27;20042;-60
2022/04/20 07:18:38;;;;;;;0.75;0.60;;;12.40;50.30;;;;;;5112469;27;20020;-63
2022/04/20 07:21:04;;;;;;;0.63;0.63;;;12.50;50.20;;;;;;5106703;27;20501;-63
2022/04/20 07:23:30;;;;;;;0.63;0.63;;;12.60;50.40;;;;;;5105999;27;20097;-63
2022/04/20 07:25:56;;;;;;;2.15;0.68;;;12.60;50.30;;;;;;5108562;27;20072;-64
2022/04/20 07:28:22;;;;;;;1.40;0.90;;;12.60;50.20;;;;;;5105955;28;20055;-63
2022/04/20 07:30:47;;;;;;;0.82;0.68;;;12.70;50.20;;;;;;5098228;27;20695;-60
2022/04/20 07:33:16;;;;;;;0.82;0.60;;;12.70;50.10;;;;;;5102637;28;20259;-60
2022/04/20 07:35:46;;;;;;;0.75;0.40;;;12.80;50.10;;;;;;5117992;27;20032;-60
2022/04/20 07:38:12;;;;;;;0.85;0.60;;;12.80;50.10;;;;;;5103634;28;20028;-60
2022/04/20 07:40:38;;;;;;;0.47;0.47;;;12.90;50.00;;;;;;5102805;27;20027;-60
2022/04/20 07:43:04;;;;;;;2.22;0.88;;;13.00;50.10;;;;;;5108498;28;20474;-60
2022/04/20 07:45:30;;;;;;;1.15;0.98;;;13.00;50.00;;;;;;5104549;28;20011;-61
2022/04/20 07:47:57;;;;;;;1.67;0.93;;;13.10;49.90;;;;;;5102360;28;20100;-59
2022/04/20 07:50:24;;;;;;;0.38;0.38;;;13.20;49.90;;;;;;5110834;27;20023;-60
2022/04/20 07:52:51;;;;;;;0.70;0.70;;;13.20;49.80;;;;;;5100496;27;20510;-60
2022/04/20 07:55:19;;;;;;;0.65;0.65;;;13.30;50.40;;;;;;5115470;27;20027;-60
2022/04/20 07:57:45;;;;;;;0.77;0.65;;;13.40;49.70;;;;;;5108843;27;20490;-60
2022/04/20 08:00:14;;;;;;;1.35;0.82;;;13.40;49.60;;;;;;5109030;27;20157;-60
2022/04/20 08:02:40;;;;;;;1.95;0.70;;;13.50;49.70;;;;;;5105671;27;20098;-60
2022/04/20 08:05:07;;;;;;;0.40;0.40;;;13.50;49.60;;;;;;5121344;27;20545;-60
2022/04/20 08:07:33;;;;;;;1.10;0.60;;;13.60;49.50;;;;;;5116767;27;20440;-63
2022/04/20 08:09:59;;;;;;;1.83;0.90;;;13.70;49.50;;;;;;5097911;27;20584;-62
2022/04/20 08:12:28;;;;;;;0.65;0.55;;;13.80;49.40;;;;;;5108323;27;20058;-63
2022/04/20 08:14:54;;;;;;;0.80;0.80;;;13.90;49.30;;;;;;5097994;27;20036;-60
2022/04/20 08:17:19;;;;;;;0.57;0.57;;;13.90;49.20;;;;;;5124901;27;20016;-59
2022/04/20 08:19:45;;;;;;;0.50;0.50;;;14.00;49.00;;;;;;5127603;27;20370;-60
2022/04/20 08:22:13;;;;;;;0.60;0.60;;;14.10;48.80;;;;;;5112442;27;20031;-60
2022/04/20 08:24:39;;;;;;;0.85;0.70;;;14.10;48.50;;;;;;5104512;27;20362;-60
2022/04/20 08:27:04;;;;;;;0.30;0.30;;;14.20;48.50;;;;;;5106389;28;20036;-60
2022/04/20 08:29:30;;;;;;;0.40;0.40;;;14.20;48.50;;;;;;5108337;28;20027;-60
2022/04/20 08:31:56;;;;;;;0.57;0.50;;;14.30;48.40;;;;;;5112361;27;20031;-60
2022/04/20 08:34:21;;;;;;;0.68;0.68;;;14.30;48.00;;;;;;5119666;27;20516;-63
2022/04/20 08:36:47;;;;;;;0.93;0.65;;;14.40;47.80;;;;;;5107030;28;20043;-63
2022/04/20 08:39:12;;;;;;;0.55;0.38;;;14.40;47.60;;;;;;5109332;28;20115;-63
2022/04/20 08:41:41;;;;;;;0.50;0.50;;;14.50;47.40;;;;;;5114289;27;20031;-63
2022/04/20 08:44:10;;;;;;;1.00;0.70;;;14.50;47.50;;;;;;5126533;27;20055;-63
2022/04/20 08:46:39;;;;;;;0.88;0.73;;;14.60;47.40;;;;;;5110924;27;20470;-63
2022/04/20 08:49:05;;;;;;;0.90;0.65;;;14.60;47.40;;;;;;5101630;27;20116;-63
2022/04/20 08:52:37;;;;;;;0.88;0.52;;;14.70;47.40;;;;;;5091087;28;20379;-63
2022/04/20 08:54:19;;;;;;;0.93;0.63;;;14.70;47.40;;;;;;5089289;28;20113;-60
2022/04/20 08:59:31;;;;;;;0.50;0.40;;;14.90;47.20;;;;;;5087672;28;20043;-63
2022/04/20 09:02:02;;;;;;;0.47;0.47;;;14.90;47.20;;;;;;5108763;28;20026;-60
2022/04/20 09:04:28;;;;;;;0.85;0.60;;;15.00;47.30;;;;;;5095839;28;20055;-60
2022/04/20 09:06:54;;;;;;;0.52;0.50;;;15.10;47.10;;;;;;5095523;28;20128;-60
2022/04/20 09:09:28;;;;;;;0.63;0.57;;;15.10;46.70;;;;;;5090386;28;20032;-60
2022/04/20 09:11:57;;;;;;;5.13;0.65;;;15.20;46.70;;;;;;5098863;28;20020;-63
2022/04/20 09:14:23;;;;;;;0.73;0.70;;;15.20;46.40;;;;;;5090091;28;20035;-63
2022/04/20 09:16:57;;;;;;;0.50;0.50;;;15.30;46.40;;;;;;5099978;28;20467;-60
2022/04/20 09:19:25;;;;;;;0.77;0.60;;;15.40;46.40;;;;;;5103409;28;20390;-60
2022/04/20 09:21:51;;;;;;;0.80;0.73;;;15.50;46.30;;;;;;5086146;28;20027;-59
2022/04/20 09:24:17;;;;;;;0.63;0.57;;;15.50;46.10;;;;;;5104144;28;20038;-59
2022/04/20 09:26:54;;;;;;;0.57;0.57;;;15.60;46.00;;;;;;5110224;28;20032;-59
2022/04/20 09:29:21;;;;;;;1.77;0.95;;;15.60;46.00;;;;;;5092688;28;20020;-59
2022/04/20 09:31:51;;;;;;;0.43;0.43;;;15.70;46.10;;;;;;5112079;28;20027;-59
2022/04/20 09:34:35;;;;;;;1.42;0.70;;;15.80;46.10;;;;;;5096469;28;20169;-59
2022/04/20 09:37:14;;;;;;;0.47;0.47;;;15.90;46.00;;;;;;5106843;27;20118;-59
2022/04/20 09:39:45;;;;;;;0.52;0.52;;;15.90;45.90;;;;;;5103283;28;20036;-59
2022/04/20 09:42:10;;;;;;;0.30;0.30;;;16.00;46.20;;;;;;5095489;28;20052;-59
2022/04/20 09:44:40;;;;;;;1.33;0.80;;;16.10;45.80;;;;;;5100188;27;20066;-63
2022/04/20 09:49:57;;;;;;;0.55;0.40;;;16.20;45.60;;;;;;5098242;27;20407;-59
2022/04/20 09:52:24;;;;;;;1.00;0.70;;;16.30;45.30;;;;;;5098941;28;20532;-60
2022/04/20 09:54:53;;;;;;;0.68;0.60;;;16.40;44.40;;;;;;5102665;28;20020;-60
2022/04/20 09:57:20;;;;;;;0.80;0.50;;;16.50;44.60;;;;;;5106739;27;20030;-63
2022/04/20 10:00:03;;;;;;;0.50;0.50;;;16.60;44.70;;;;;;5105384;27;20023;-63
2022/04/20 10:02:30;;;;;;;0.85;0.68;;;16.60;44.60;;;;;;5108181;27;20053;-63
2022/04/20 10:04:57;;;;;;;1.85;0.50;;;16.70;43.90;;;;;;5112502;27;20023;-60
2022/04/20 10:07:23;;;;;;;1.00;0.65;;;16.70;43.90;;;;;;5101618;28;20089;-60
2022/04/20 10:09:49;;;;;;;0.50;0.50;;;16.80;44.00;;;;;;5097182;27;20036;-59
2022/04/20 10:12:16;;;;;;;0.93;0.60;;;16.80;43.80;;;;;;5106518;27;20974;-59
2022/04/20 10:17:34;;;;;;;0.82;0.75;;;16.90;42.50;;;;;;5094816;27;20112;-63
2022/04/20 10:20:03;;;;;;;1.70;0.65;;;16.90;43.00;;;;;;5096533;28;20039;-64
2022/04/20 10:22:31;;;;;;;1.40;0.85;;;17.00;43.10;;;;;;5095140;28;20035;-64
2022/04/20 10:24:59;;;;;;;0.90;0.80;;;17.10;42.90;;;;;;5098990;28;20032;-64
2022/04/20 10:27:59;;;;;;;1.23;0.50;;;17.10;42.90;;;;;;5090264;28;20062;-64
2022/04/20 10:30:58;;;;;;;0.50;0.50;;;17.20;42.60;;;;;;5094387;28;20015;-61
2022/04/20 10:33:24;;;;;;;0.90;0.63;;;17.30;42.80;;;;;;5099964;28;20062;-60
2022/04/20 10:36:11;;;;;;;0.60;0.60;;;17.40;42.80;;;;;;5097555;28;20036;-60
2022/04/20 10:38:38;;;;;;;0.85;0.63;;;17.60;42.70;;;;;;5104683;28;20031;-60
2022/04/20 10:41:17;;;;;;;1.20;0.52;;;17.70;42.60;;;;;;5111157;28;20023;-61
2022/04/20 10:43:43;;;;;;;0.98;0.60;;;17.80;42.20;;;;;;5097440;28;20078;-64
2022/04/20 10:46:15;;;;;;;0.30;0.30;;;18.00;42.00;;;;;;5110391;27;20066;-64
2022/04/20 10:49:02;;;;;;;0.88;0.47;;;18.10;42.10;;;;;;5111169;28;20038;-64
2022/04/20 10:51:32;;;;;;;0.73;0.73;;;18.20;41.60;;;;;;5110909;28;20032;-64
2022/04/20 10:54:27;;;;;;;0.98;0.70;;;18.20;41.70;;;;;;5110573;28;20052;-62
2022/04/20 10:56:59;;;;;;;1.02;0.70;;;18.30;41.50;;;;;;5109634;28;20019;-61
2022/04/20 10:59:25;;;;;;;0.40;0.40;;;18.40;41.60;;;;;;5110729;28;20073;-61
2022/04/20 11:02:02;;;;;;;4.03;0.70;;;18.50;41.50;;;;;;5109552;28;20478;-61
2022/04/20 11:04:46;;;;;;;0.70;0.63;;;18.60;40.70;;;;;;5109041;28;20038;-61
2022/04/20 11:07:23;;;;;;;0.63;0.50;;;18.70;41.40;;;;;;5092213;28;20088;-60
2022/04/20 11:09:56;;;;;;;3.05;0.98;;;18.70;40.70;;;;;;5110161;28;20027;-61
2022/04/20 11:18:38;;;;;;;1.00;0.90;;;18.80;40.10;;;;;;5094104;28;20127;-61
2022/04/20 11:18:39;;;;;;;0.50;0.50;;;18.80;40.00;;;;;;5108783;28;20059;-61
2022/04/20 11:21:06;;;;;;;0.65;0.65;;;18.90;40.20;;;;;;5116313;27;20056;-60
2022/04/20 11:23:54;;;;;;;0.60;0.60;;;19.00;40.30;;;;;;5105275;27;20083;-60
2022/04/20 11:26:41;;;;;;;0.70;0.60;;;19.10;40.10;;;;;;5114249;27;20060;-63
2022/04/20 11:29:10;;;;;;;0.85;0.85;;;19.20;39.90;;;;;;5110732;27;20024;-64
2022/04/20 11:31:38;;;;;;;0.82;0.70;;;19.20;39.70;;;;;;5105295;27;20089;-59
2022/04/20 11:34:05;;;;;;;2.33;0.70;;;19.40;40.40;;;;;;5106401;28;20495;-60
2022/04/20 11:36:31;;;;;;;0.40;0.40;;;19.40;39.40;;;;;;5103374;27;20015;-64
2022/04/20 11:38:57;;;;;;;0.47;0.47;;;19.50;39.80;;;;;;5113218;27;20035;-64
2022/04/20 11:41:23;;;;;;;1.23;0.50;;;19.60;39.80;;;;;;5118000;27;21439;-64
2022/04/20 11:43:51;;;;;;;0.70;0.70;;;19.70;39.20;;;;;;5102330;28;20028;-63
2022/04/20 11:46:18;;;;;;;0.40;0.40;;;19.70;38.60;;;;;;5107267;27;20028;-64
2022/04/20 11:48:52;;;;;;;1.10;0.70;;;19.80;39.00;;;;;;5096542;27;20114;-63
2022/04/20 11:51:31;;;;;;;0.80;0.52;;;19.90;39.00;;;;;;5107870;27;20023;-63
2022/04/20 11:53:56;;;;;;;1.58;0.80;;;20.00;39.00;;;;;;5101177;27;20044;-63
2022/04/20 11:56:51;;;;;;;0.70;0.45;;;20.00;37.80;;;;;;5105959;27;20131;-63
2022/04/20 11:59:24;;;;;;;0.57;0.57;;;20.10;38.50;;;;;;5082580;28;20038;-63
2022/04/20 12:01:50;;;;;;;0.40;0.40;;;20.10;38.10;;;;;;5112681;27;20395;-60
2022/04/20 12:04:20;;;;;;;0.80;0.57;;;20.20;38.40;;;;;;5105289;28;20024;-59
2022/04/20 12:06:48;;;;;;;1.20;0.82;;;20.20;38.50;;;;;;5113378;27;20045;-59
2022/04/20 12:09:15;;;;;;;0.52;0.52;;;20.40;38.30;;;;;;5103056;27;20036;-60
2022/04/20 12:11:41;;;;;;;1.13;0.82;;;20.50;38.30;;;;;;5103409;27;20107;-63
2022/04/20 12:14:07;;;;;;;0.68;0.68;;;20.60;38.10;;;;;;5117339;27;20032;-63
2022/04/20 12:16:34;;;;;;;0.82;0.80;;;20.70;38.30;;;;;;5102820;28;20089;-63
2022/04/20 12:19:00;;;;;;;0.57;0.57;;;20.80;37.90;;;;;;5110417;27;20503;-60
2022/04/20 12:21:41;;;;;;;0.60;0.60;;;20.90;38.20;;;;;;5119472;27;20438;-60
2022/04/20 12:24:27;;;;;;;0.75;0.70;;;21.00;38.10;;;;;;5112232;27;20031;-60
2022/04/20 12:26:55;;;;;;;1.05;0.75;;;21.10;38.00;;;;;;5097849;27;20138;-64
2022/04/20 12:29:27;;;;;;;0.40;0.40;;;21.10;37.70;;;;;;5107649;27;20039;-60
2022/04/20 12:31:55;;;;;;;2.15;0.50;;;21.20;37.60;;;;;;5103278;28;20020;-60
2022/04/20 12:34:24;;;;;;;0.70;0.60;;;21.30;38.00;;;;;;5111564;27;20067;-60
2022/04/20 12:36:51;;;;;;;0.60;0.60;;;21.40;37.80;;;;;;5110591;27;20023;-61
2022/04/20 12:39:32;;;;;;;0.82;0.82;;;21.50;37.70;;;;;;5112616;27;20046;-60
2022/04/20 12:42:01;;;;;;;0.50;0.50;;;21.60;37.50;;;;;;5105601;27;20020;-64
2022/04/20 12:44:36;;;;;;;0.60;0.47;;;21.60;37.40;;;;;;5097825;27;20023;-63
2022/04/20 12:47:11;;;;;;;0.73;0.73;;;21.60;36.90;;;;;;5105423;28;20050;-64
2022/04/20 12:49:38;;;;;;;0.60;0.60;;;21.60;37.50;;;;;;5105485;28;20229;-64
2022/04/20 12:52:16;;;;;;;1.80;0.50;;;21.80;37.40;;;;;;5099130;27;20028;-59
2022/04/20 12:54:53;;;;;;;1.38;1.25;;;21.90;37.20;;;;;;5094701;28;20031;-60
2022/04/20 13:03:16;;;;;;;0.57;0.57;;;22.20;36.80;;;;;;5103068;28;20061;-64
2022/04/20 13:05:43;;;;;;;0.82;0.70;;;22.20;36.70;;;;;;5114381;28;20462;-64
2022/04/20 13:08:11;;;;;;;1.35;0.60;;;22.20;36.30;;;;;;5123475;27;20027;-64
2022/04/20 13:10:45;;;;;;;0.40;0.40;;;22.30;36.20;;;;;;5112265;28;20028;-60
2022/04/20 13:13:11;;;;;;;1.10;1.00;;;22.40;35.80;;;;;;5105735;27;20027;-60
2022/04/20 13:15:37;;;;;;;0.70;0.70;;;22.40;35.80;;;;;;5095653;27;20068;-61
2022/04/20 13:18:03;;;;;;;1.63;0.95;;;22.50;35.90;;;;;;5096728;27;20035;-61
2022/04/20 13:20:31;;;;;;;2.08;0.88;;;;;;;;;;5112578;27;20533;-60
2022/04/20 15:39:33;;;;;;;1.00;0.80;;;22.30;35.20;;;;;;5122012;27;20357;-59